Potsdam, NY

8:30 AM EST on February 06, 2016 (GMT -0500)
NonFedAWOS | | Change Station
CLOSE
Current Station
Personal Weather Station
Location: Potsdam, NY
Elevation: 473 ft
Nearby Weather Stations

Elev 473 ft 44.68 °N, 74.95 °W | Updated 24 minutes ago

Overcast
Overcast
30 °F
Feels Like 21 °F
N
10
Wind Variable Wind from WSW
Gusts 0.0 mph

Today
High -- | Low -- °F
--% Chance of Precip.
Yesterday
High -- | Low -- °F
Precip. -- in
Pressure 30.21 in
Visibility 0.5 miles
Clouds
Windchill 21 °F
Dew Point 28 °F
Humidity 93%
Rainfall in
Snow Depth Not available.
7:13 AM 5:15 PM
Waning Crescent, 5% visible
SPECI KMSS 061307Z AUTO 22005KT 1/2SM SN FZFG VV010 M01/M03 A3021 RMK AO2 P0001 T10111028
Pressure 30.21 in
Visibility 0.5 miles
Clouds
Windchill 21 °F
Dew Point 28 °F
Humidity 93%
Rainfall in
Snow Depth Not available.
7:13 AM 5:15 PM
Waning Crescent, 5% visible
SPECI KMSS 061307Z AUTO 22005KT 1/2SM SN FZFG VV010 M01/M03 A3021 RMK AO2 P0001 T10111028

10-Day Weather Forecast

Almanac

Astronomy

Feb. 06, 2016 Rise Set
Actual Time
Civil Twilight
Nautical Twilight
Astronomical Twilight
Moon
Length of Visible Light
Length of Day
Tomorrow will be .
, % of the Moon is Illuminated

Today's Extremes

State Highs State Lows

Community

WunderPhotos

Upload Photos

1,890,965 photos uploaded!

WunderBlog® & News

Nearby

Air Quality

  Air Quality AQ Index Pollutant
Not available.

Snow Depth

Station Depth Elevation

Earthquake Activity

City Distance Mag. Time & Date
Minimum magnitude displayed is 2.5.

Coastal Water Temperatures

Place Temperature

Stations

Nearby Weather Stations

Station Location Temp. Windchill Dew Point Humidity Wind Precip. Elev Updated Type
                   

Watches & Warnings

There are currently no watches in effect.